Time;durP1;ratioP1;P1;durP2;ratioP2;P2;SDS_P1;SDS_P2;PMS_P1;PMS_P2;Temp;Humidity;BMP_temperature;BMP_pressure;BME280_temperature;BME280_humidity;BME280_pressure;Samples;Min_cycle;Max_cycle;Signal;HPM_P1;HPM_P2
2022/12/11 00:01:09;;;;;;;3.57;3.23;;;17.50;62.50;;;;;;5069627;28;20530;-67
2022/12/11 00:03:37;;;;;;;3.57;3.27;;;17.50;62.50;;;;;;5057426;28;20458;-68
2022/12/11 00:06:07;;;;;;;3.40;3.10;;;17.50;62.50;;;;;;5068589;28;20946;-68
2022/12/11 00:08:35;;;;;;;3.17;2.97;;;17.50;62.50;;;;;;5054862;28;20480;-68
2022/12/11 00:11:04;;;;;;;3.30;3.10;;;17.50;62.50;;;;;;5078012;28;20503;-67
2022/12/11 00:13:33;;;;;;;3.43;3.13;;;17.50;62.50;;;;;;5065048;28;20471;-68
2022/12/11 00:16:02;;;;;;;4.20;3.90;;;17.50;62.50;;;;;;5055217;28;20444;-68
2022/12/11 00:18:30;;;;;;;3.83;3.53;;;17.50;62.60;;;;;;5069172;28;20485;-68
2022/12/11 00:21:01;;;;;;;3.70;3.50;;;17.50;62.50;;;;;;5065710;28;20481;-68
2022/12/11 00:23:30;;;;;;;3.30;3.10;;;17.50;62.60;;;;;;5064994;28;20552;-70
2022/12/11 00:25:58;;;;;;;3.03;2.83;;;17.50;62.50;;;;;;5060829;28;20438;-67
2022/12/11 00:28:26;;;;;;;3.40;3.10;;;17.50;62.60;;;;;;5075851;28;20983;-68
2022/12/11 00:30:54;;;;;;;3.30;3.03;;;17.50;62.50;;;;;;5066242;28;20504;-67
2022/12/11 00:33:26;;;;;;;3.87;3.53;;;17.50;62.60;;;;;;5072668;28;20461;-68
2022/12/11 00:35:54;;;;;;;3.70;3.40;;;17.50;62.50;;;;;;5063891;28;20471;-67
2022/12/11 00:38:23;;;;;;;3.13;2.83;;;17.50;62.60;;;;;;5065844;28;20481;-68
2022/12/11 00:40:51;;;;;;;4.27;3.60;;;17.50;62.60;;;;;;5061250;28;20485;-68
2022/12/11 00:43:19;;;;;;;2.80;2.60;;;17.50;62.60;;;;;;5070378;28;20445;-68
2022/12/11 00:45:47;;;;;;;4.00;3.60;;;17.50;62.60;;;;;;5072393;28;20534;-66
2022/12/11 00:48:16;;;;;;;3.33;3.10;;;17.50;62.50;;;;;;5068303;28;20814;-67
2022/12/11 00:50:46;;;;;;;3.57;3.27;;;17.50;62.60;;;;;;5062046;28;20815;-67
2022/12/11 00:53:14;;;;;;;3.37;3.07;;;17.50;62.60;;;;;;5067261;28;20500;-67
2022/12/11 00:55:43;;;;;;;3.43;3.20;;;17.50;62.60;;;;;;5064434;28;20475;-70
2022/12/11 00:58:12;;;;;;;3.40;3.10;;;17.50;62.60;;;;;;5075269;28;20799;-67
2022/12/11 01:00:41;;;;;;;3.03;2.83;;;17.50;62.60;;;;;;5076715;28;20540;-68
2022/12/11 01:03:10;;;;;;;3.67;3.47;;;17.50;62.50;;;;;;5069545;28;20442;-67
2022/12/11 01:05:38;;;;;;;3.57;3.30;;;17.50;62.50;;;;;;5063870;28;20532;-67
2022/12/11 01:08:08;;;;;;;3.47;3.17;;;17.50;62.50;;;;;;5062223;28;20474;-67
2022/12/11 01:10:35;;;;;;;4.50;3.40;;;17.50;62.50;;;;;;5056854;28;20448;-67
2022/12/11 01:13:06;;;;;;;3.03;2.83;;;17.50;62.50;;;;;;5063963;28;20980;-67
2022/12/11 01:15:38;;;;;;;3.80;3.50;;;17.50;62.50;;;;;;5062679;28;20538;-67
2022/12/11 01:18:09;;;;;;;3.00;2.80;;;17.50;62.50;;;;;;5058796;28;20899;-67
2022/12/11 01:20:38;;;;;;;4.63;3.33;;;17.50;62.50;;;;;;5064392;28;20514;-67
2022/12/11 01:23:10;;;;;;;3.47;3.23;;;17.50;62.50;;;;;;5063484;28;20479;-67
2022/12/11 01:25:38;;;;;;;3.10;2.90;;;17.50;62.50;;;;;;5071560;28;20977;-67
2022/12/11 01:28:06;;;;;;;2.30;2.20;;;17.50;62.50;;;;;;5059370;28;20469;-67
2022/12/11 01:30:34;;;;;;;2.60;2.33;;;17.50;62.50;;;;;;5074248;28;20569;-67
2022/12/11 01:33:03;;;;;;;3.00;2.80;;;17.50;62.40;;;;;;5060164;28;20454;-67
2022/12/11 01:35:31;;;;;;;3.13;2.83;;;17.50;62.40;;;;;;5070633;28;20934;-67
2022/12/11 01:37:59;;;;;;;2.87;2.67;;;17.50;62.50;;;;;;5074636;28;20526;-67
2022/12/11 01:40:29;;;;;;;2.83;2.63;;;17.50;62.50;;;;;;5069664;28;20517;-67
2022/12/11 01:42:57;;;;;;;3.37;3.07;;;17.50;62.40;;;;;;5074446;28;20471;-67
2022/12/11 01:45:43;;;;;;;4.27;3.07;;;17.50;62.50;;;;;;5073752;28;20454;-69
2022/12/11 01:48:15;;;;;;;3.63;3.27;;;17.50;62.50;;;;;;5079342;28;20890;-71
2022/12/11 01:50:47;;;;;;;2.90;2.70;;;17.50;62.50;;;;;;5069880;28;20516;-69
2022/12/11 01:53:20;;;;;;;3.20;3.00;;;17.50;62.50;;;;;;5057982;28;20467;-70
2022/12/11 01:55:53;;;;;;;2.30;2.20;;;17.50;62.50;;;;;;5062786;28;20854;-67
2022/12/11 01:58:23;;;;;;;3.03;2.83;;;17.50;62.50;;;;;;5059789;28;21067;-67
2022/12/11 02:00:52;;;;;;;4.27;3.87;;;17.50;62.50;;;;;;5070877;28;20545;-66
2022/12/11 02:03:21;;;;;;;3.13;2.83;;;17.50;62.50;;;;;;5081587;28;20451;-69
2022/12/11 02:05:50;;;;;;;3.17;2.97;;;17.50;62.50;;;;;;5061269;28;20434;-67
2022/12/11 02:08:19;;;;;;;3.47;3.27;;;17.50;62.50;;;;;;5062718;28;20552;-67
2022/12/11 02:11:07;;;;;;;3.00;2.67;;;17.50;62.50;;;;;;5068884;28;20459;-72
2022/12/11 02:13:44;;;;;;;2.27;2.17;;;17.50;62.60;;;;;;5061513;28;20798;-67
2022/12/11 02:16:19;;;;;;;2.97;2.77;;;17.50;62.60;;;;;;5078203;28;20534;-67
2022/12/11 02:18:52;;;;;;;2.90;2.70;;;17.50;62.60;;;;;;5070486;28;20917;-69
2022/12/11 02:21:24;;;;;;;2.87;2.67;;;17.50;62.60;;;;;;5078713;28;20866;-69
2022/12/11 02:24:15;;;;;;;2.83;2.63;;;17.50;62.60;;;;;;5072970;28;20558;-67
2022/12/11 02:27:19;;;;;;;3.07;2.87;;;17.50;62.60;;;;;;5085936;28;20435;-68
2022/12/11 02:29:55;;;;;;;2.80;2.60;;;17.50;62.60;;;;;;5002244;28;20467;-68
2022/12/11 02:32:27;;;;;;;2.83;2.63;;;17.40;62.60;;;;;;5050535;28;21289;-66
2022/12/11 02:35:02;;;;;;;2.77;2.57;;;17.50;62.60;;;;;;5071772;28;21000;-69
2022/12/11 02:37:35;;;;;;;2.80;2.60;;;17.40;62.60;;;;;;5058470;28;20790;-67
2022/12/11 02:40:07;;;;;;;2.67;2.47;;;17.40;62.60;;;;;;5074361;28;20582;-67
2022/12/11 02:42:37;;;;;;;3.10;2.90;;;17.40;62.60;;;;;;5066966;28;20463;-69
2022/12/11 02:45:09;;;;;;;2.60;2.40;;;17.40;62.60;;;;;;5073526;28;20481;-67
2022/12/11 02:47:39;;;;;;;2.63;2.47;;;17.40;62.60;;;;;;5079209;28;20474;-67
2022/12/11 02:50:10;;;;;;;2.63;2.43;;;17.40;62.60;;;;;;5075711;28;20554;-68
2022/12/11 02:52:40;;;;;;;3.40;2.80;;;17.40;62.60;;;;;;5069888;28;20489;-68
2022/12/11 02:55:11;;;;;;;3.10;2.87;;;17.40;62.50;;;;;;5060632;28;20455;-66
2022/12/11 02:57:45;;;;;;;3.30;3.10;;;17.40;62.50;;;;;;5065568;28;20520;-67
2022/12/11 03:00:17;;;;;;;2.50;2.30;;;17.40;62.50;;;;;;5070147;28;20533;-67
2022/12/11 03:02:46;;;;;;;2.50;2.40;;;17.40;62.50;;;;;;5077002;28;20517;-70
2022/12/11 03:05:14;;;;;;;2.70;2.50;;;17.40;62.50;;;;;;5077358;28;20457;-68
2022/12/11 03:07:44;;;;;;;2.50;2.30;;;17.40;62.50;;;;;;5069195;28;20576;-67
2022/12/11 03:10:14;;;;;;;3.30;3.10;;;17.40;62.50;;;;;;5074517;28;20574;-67
2022/12/11 03:12:46;;;;;;;3.20;3.00;;;17.40;62.50;;;;;;5067609;28;20453;-68
2022/12/11 03:15:29;;;;;;;2.83;2.63;;;17.40;62.50;;;;;;5086232;28;20548;-67
2022/12/11 03:18:03;;;;;;;2.67;2.47;;;17.40;62.50;;;;;;5075384;28;20449;-66
2022/12/11 03:20:37;;;;;;;2.87;2.67;;;17.40;62.50;;;;;;5093361;28;20445;-68
2022/12/11 03:23:16;;;;;;;3.03;2.83;;;17.40;62.50;;;;;;5064832;28;20516;-67
2022/12/11 03:25:52;;;;;;;2.60;2.40;;;17.40;62.50;;;;;;5066074;28;20613;-69
2022/12/11 03:28:26;;;;;;;2.47;2.27;;;17.40;62.50;;;;;;5067672;28;20451;-68
2022/12/11 03:30:56;;;;;;;2.77;2.53;;;17.40;62.40;;;;;;5061599;28;20454;-69
2022/12/11 03:33:30;;;;;;;2.60;2.50;;;17.40;62.50;;;;;;5064363;28;20956;-67
2022/12/11 03:36:04;;;;;;;2.70;2.50;;;17.40;62.40;;;;;;5062926;28;20911;-67
2022/12/11 03:38:37;;;;;;;3.27;2.93;;;17.40;62.40;;;;;;5070617;28;20898;-67
2022/12/11 03:41:07;;;;;;;2.33;2.13;;;17.40;62.50;;;;;;5071276;28;20481;-67
2022/12/11 03:43:38;;;;;;;2.50;2.30;;;17.40;62.50;;;;;;5070859;28;21047;-67
2022/12/11 03:46:09;;;;;;;2.60;2.40;;;17.40;62.50;;;;;;5074119;28;20521;-68
2022/12/11 03:48:41;;;;;;;2.63;2.50;;;17.40;62.50;;;;;;5071908;28;21079;-66
2022/12/11 03:51:10;;;;;;;2.77;2.57;;;17.40;62.50;;;;;;5064083;28;20465;-71
2022/12/11 03:53:39;;;;;;;2.67;2.43;;;17.40;62.50;;;;;;5068990;28;20490;-67
2022/12/11 03:56:10;;;;;;;2.97;2.77;;;17.40;62.50;;;;;;5072873;28;20914;-67
2022/12/11 03:58:38;;;;;;;2.47;2.27;;;17.40;62.50;;;;;;5074690;28;20474;-67
2022/12/11 04:01:10;;;;;;;3.10;2.80;;;17.40;62.50;;;;;;5053351;28;20887;-68
2022/12/11 04:03:39;;;;;;;1.90;1.80;;;17.40;62.50;;;;;;5077463;28;20451;-67
2022/12/11 04:06:07;;;;;;;2.47;2.27;;;17.40;62.50;;;;;;5085975;28;20445;-68
2022/12/11 04:08:36;;;;;;;2.80;2.60;;;17.40;62.50;;;;;;5081217;28;20463;-67
2022/12/11 04:15:00;;;;;;;2.20;2.10;;;17.40;62.50;;;;;;5087388;28;20536;-68
2022/12/11 04:16:39;;;;;;;2.30;2.10;;;17.30;62.50;;;;;;5086234;28;20482;-73
2022/12/11 04:24:40;;;;;;;2.17;2.00;;;17.30;62.50;;;;;;5069492;28;20548;-69
2022/12/11 04:27:08;;;;;;;2.37;2.17;;;17.30;62.50;;;;;;5061594;28;20467;-66
2022/12/11 04:29:37;;;;;;;2.50;2.30;;;17.30;62.50;;;;;;5062855;28;20474;-67
2022/12/11 04:32:06;;;;;;;2.60;2.40;;;17.30;62.50;;;;;;5067720;28;21028;-68
2022/12/11 04:34:34;;;;;;;2.20;2.10;;;17.30;62.50;;;;;;5084409;28;20536;-69
2022/12/11 04:37:03;;;;;;;2.43;2.23;;;17.30;62.50;;;;;;5059108;28;20486;-66
2022/12/11 04:39:31;;;;;;;2.03;1.93;;;17.30;62.50;;;;;;5052349;28;20546;-67
2022/12/11 04:41:59;;;;;;;2.87;2.67;;;17.30;62.50;;;;;;5052259;28;20478;-69
2022/12/11 04:44:27;;;;;;;2.40;2.20;;;17.30;62.50;;;;;;5051883;28;20446;-67
2022/12/11 04:46:55;;;;;;;2.40;2.20;;;17.30;62.50;;;;;;5053706;28;20459;-67
2022/12/11 04:49:25;;;;;;;2.70;2.50;;;17.30;62.40;;;;;;5074479;28;20569;-67
2022/12/11 04:51:53;;;;;;;2.77;2.53;;;17.30;62.50;;;;;;5066314;28;21076;-70
2022/12/11 04:54:21;;;;;;;2.07;1.97;;;17.30;62.40;;;;;;5067088;28;21016;-67
2022/12/11 04:56:49;;;;;;;3.63;2.17;;;17.30;62.40;;;;;;5060944;28;20451;-66
2022/12/11 04:59:18;;;;;;;2.77;2.57;;;17.30;62.40;;;;;;5070619;28;20529;-67
2022/12/11 05:01:46;;;;;;;2.03;1.93;;;17.30;62.40;;;;;;5070928;28;20544;-68
2022/12/11 05:04:14;;;;;;;2.57;2.37;;;17.30;62.40;;;;;;5066453;28;20443;-67
2022/12/11 05:06:44;;;;;;;8.73;2.50;;;17.30;62.50;;;;;;5068064;28;20546;-67
2022/12/11 05:09:13;;;;;;;2.50;2.30;;;17.30;62.50;;;;;;5079941;28;20563;-67
2022/12/11 05:11:41;;;;;;;2.07;1.97;;;17.30;62.50;;;;;;5075457;28;20975;-67
2022/12/11 05:14:09;;;;;;;2.10;2.00;;;17.30;62.50;;;;;;5068208;28;20456;-68
2022/12/11 05:16:38;;;;;;;2.67;2.47;;;17.30;62.50;;;;;;5080372;28;20453;-68
2022/12/11 05:19:06;;;;;;;2.23;1.93;;;17.30;62.50;;;;;;5064687;28;20843;-68
2022/12/11 05:21:34;;;;;;;2.10;1.90;;;17.30;62.50;;;;;;5051137;28;20704;-67
2022/12/11 05:24:04;;;;;;;2.00;1.90;;;17.30;62.50;;;;;;5064861;28;20914;-68
2022/12/11 05:26:32;;;;;;;2.03;1.93;;;17.30;62.50;;;;;;5090960;28;20449;-67
2022/12/11 05:29:00;;;;;;;2.13;2.03;;;17.20;62.50;;;;;;5084940;28;20449;-67
2022/12/11 05:31:29;;;;;;;2.57;2.37;;;17.20;62.50;;;;;;5065739;28;20476;-68
2022/12/11 05:33:57;;;;;;;2.80;2.60;;;17.20;62.60;;;;;;5063768;28;20462;-67
2022/12/11 05:36:26;;;;;;;2.43;2.23;;;17.20;62.50;;;;;;5056641;28;20804;-70
2022/12/11 05:38:55;;;;;;;2.20;2.10;;;17.20;62.50;;;;;;5053077;28;20526;-67
2022/12/11 05:41:27;;;;;;;2.70;2.53;;;17.20;62.70;;;;;;5051911;28;20511;-67
2022/12/11 05:43:56;;;;;;;2.53;2.30;;;17.20;62.70;;;;;;5032831;28;20447;-70
2022/12/11 05:46:26;;;;;;;2.23;2.13;;;17.20;62.60;;;;;;5036635;28;20444;-67
2022/12/11 05:48:56;;;;;;;2.50;2.30;;;17.20;62.70;;;;;;5031752;28;20835;-68
2022/12/11 05:51:24;;;;;;;2.60;2.40;;;17.20;62.70;;;;;;5038038;28;20567;-70
2022/12/11 05:53:53;;;;;;;2.13;1.90;;;17.20;62.70;;;;;;5038787;28;20550;-67
2022/12/11 05:56:25;;;;;;;1.80;1.70;;;17.20;62.70;;;;;;5045680;28;20478;-67
2022/12/11 05:58:55;;;;;;;2.40;2.27;;;17.20;62.70;;;;;;5050971;28;20474;-68
2022/12/11 06:01:25;;;;;;;1.80;1.70;;;17.20;62.70;;;;;;5037675;28;20456;-68
2022/12/11 06:03:54;;;;;;;2.20;2.10;;;17.20;62.70;;;;;;5033946;28;20505;-67
2022/12/11 06:06:22;;;;;;;2.50;2.30;;;17.20;62.70;;;;;;5037349;28;20457;-67
2022/12/11 06:08:51;;;;;;;2.23;2.13;;;17.20;62.70;;;;;;5038341;28;20542;-67
2022/12/11 06:11:20;;;;;;;2.00;1.90;;;17.20;62.70;;;;;;5045748;28;20471;-67
2022/12/11 06:13:51;;;;;;;2.10;2.00;;;17.20;62.70;;;;;;5040754;28;20451;-68
2022/12/11 06:16:24;;;;;;;2.33;2.13;;;17.20;62.70;;;;;;5041126;28;20477;-67
2022/12/11 06:18:53;;;;;;;1.90;1.80;;;17.20;62.70;;;;;;5037497;28;20538;-67
2022/12/11 06:21:27;;;;;;;2.03;1.93;;;17.20;62.70;;;;;;5040681;28;20461;-67
2022/12/11 06:23:57;;;;;;;2.43;2.33;;;17.10;62.70;;;;;;5046835;28;20579;-67
2022/12/11 06:26:25;;;;;;;2.60;2.40;;;17.20;62.70;;;;;;5036227;28;20475;-69
2022/12/11 06:28:54;;;;;;;2.00;1.90;;;17.10;62.70;;;;;;5037130;28;20539;-67
2022/12/11 06:31:23;;;;;;;2.40;2.20;;;17.10;62.70;;;;;;5047166;28;20926;-69
2022/12/11 06:33:53;;;;;;;2.53;2.00;;;17.10;62.70;;;;;;5046265;28;20795;-67
2022/12/11 06:36:23;;;;;;;2.00;1.90;;;17.10;62.70;;;;;;5054725;28;20431;-68
2022/12/11 06:38:52;;;;;;;2.47;2.30;;;17.10;62.70;;;;;;5054178;28;20431;-71
2022/12/11 06:41:20;;;;;;;2.00;1.90;;;17.10;62.70;;;;;;5048301;28;20540;-67
2022/12/11 06:43:49;;;;;;;2.00;1.90;;;17.10;62.70;;;;;;5053721;28;20804;-68
2022/12/11 06:46:19;;;;;;;2.33;2.10;;;17.10;62.70;;;;;;5054617;28;20459;-67
2022/12/11 06:48:49;;;;;;;1.90;1.80;;;17.10;62.70;;;;;;5055519;28;20487;-67
2022/12/11 06:51:19;;;;;;;1.73;1.63;;;17.10;62.70;;;;;;5073878;28;20560;-68
2022/12/11 06:53:52;;;;;;;2.10;2.00;;;17.10;62.70;;;;;;5063212;28;20497;-68
2022/12/11 06:56:20;;;;;;;1.90;1.80;;;17.10;62.70;;;;;;5073906;28;20430;-68
2022/12/11 06:58:48;;;;;;;1.90;1.80;;;17.10;62.70;;;;;;5070972;28;20879;-67
2022/12/11 07:01:19;;;;;;;1.93;1.83;;;17.10;62.70;;;;;;5073152;28;20933;-69
2022/12/11 07:03:52;;;;;;;1.83;1.73;;;17.10;62.70;;;;;;5053657;28;20829;-69
2022/12/11 07:06:20;;;;;;;2.80;2.10;;;17.10;62.70;;;;;;5062347;28;20450;-68
2022/12/11 07:08:48;;;;;;;3.90;1.87;;;17.10;62.70;;;;;;5066150;28;21272;-67
2022/12/11 07:11:17;;;;;;;2.20;2.10;;;17.10;62.70;;;;;;5053319;28;20475;-69
2022/12/11 07:13:46;;;;;;;1.73;1.63;;;17.10;62.80;;;;;;5057111;28;20682;-67
2022/12/11 07:16:16;;;;;;;2.37;2.23;;;17.10;62.80;;;;;;5072599;28;20455;-68
2022/12/11 07:18:47;;;;;;;2.07;1.97;;;17.00;62.80;;;;;;5056405;28;20504;-67
2022/12/11 07:21:18;;;;;;;2.13;1.93;;;17.10;62.80;;;;;;5072403;28;20562;-68
2022/12/11 07:23:47;;;;;;;2.30;2.20;;;17.10;62.80;;;;;;5073522;28;20949;-68
2022/12/11 07:26:18;;;;;;;2.20;2.10;;;17.10;62.80;;;;;;5061121;28;20455;-68
2022/12/11 07:28:46;;;;;;;2.00;1.80;;;17.10;62.70;;;;;;5070495;28;20568;-70
2022/12/11 07:31:16;;;;;;;2.57;2.37;;;17.10;62.70;;;;;;5055498;28;20475;-67
2022/12/11 07:33:45;;;;;;;1.57;1.47;;;17.10;62.70;;;;;;5062306;28;20501;-67
2022/12/11 07:36:15;;;;;;;1.73;1.63;;;17.10;62.70;;;;;;5056029;28;20572;-67
2022/12/11 07:38:44;;;;;;;2.33;2.23;;;17.10;62.70;;;;;;5066563;28;20442;-67
2022/12/11 07:41:14;;;;;;;1.90;1.80;;;17.10;62.70;;;;;;5053168;28;20523;-68
2022/12/11 07:43:43;;;;;;;2.63;1.80;;;17.10;62.70;;;;;;5062808;28;20486;-69
2022/12/11 07:46:13;;;;;;;2.17;1.97;;;17.10;62.70;;;;;;5064309;28;21005;-68
2022/12/11 07:48:45;;;;;;;2.00;1.90;;;17.10;62.70;;;;;;5060560;28;20473;-67
2022/12/11 07:51:16;;;;;;;1.90;1.80;;;17.10;62.70;;;;;;5069664;28;20549;-67
2022/12/11 07:53:47;;;;;;;2.07;1.97;;;17.10;62.70;;;;;;5062607;28;20438;-67
2022/12/11 07:56:16;;;;;;;2.00;1.90;;;17.10;62.70;;;;;;5066659;28;20530;-69
2022/12/11 07:58:45;;;;;;;1.97;1.87;;;17.10;62.60;;;;;;5069895;28;20854;-68
2022/12/11 08:01:15;;;;;;;1.73;1.63;;;17.10;62.60;;;;;;5068340;28;20485;-67
2022/12/11 08:03:44;;;;;;;1.93;1.83;;;17.10;62.60;;;;;;5056348;28;21029;-67
2022/12/11 08:06:13;;;;;;;2.00;1.90;;;17.10;62.60;;;;;;5069628;28;20566;-69
2022/12/11 08:08:41;;;;;;;2.70;2.03;;;17.10;62.60;;;;;;5068057;28;20447;-67
2022/12/11 08:11:14;;;;;;;2.20;2.10;;;17.10;62.60;;;;;;5069973;28;20971;-67
2022/12/11 08:13:43;;;;;;;2.17;2.00;;;17.10;62.60;;;;;;5062152;28;20493;-67
2022/12/11 08:16:13;;;;;;;2.27;2.07;;;17.10;62.60;;;;;;5064539;28;20469;-70
2022/12/11 08:18:43;;;;;;;1.80;1.70;;;17.10;62.50;;;;;;5066699;28;20447;-67
2022/12/11 08:21:13;;;;;;;2.10;1.80;;;17.10;62.60;;;;;;5068356;28;20450;-67
2022/12/11 08:23:41;;;;;;;2.13;2.03;;;17.10;62.60;;;;;;5064007;28;20525;-67
2022/12/11 08:26:14;;;;;;;1.93;1.83;;;17.10;62.50;;;;;;5067297;28;21235;-69
2022/12/11 08:28:42;;;;;;;1.57;1.53;;;17.10;62.50;;;;;;5068806;28;20448;-67
2022/12/11 08:31:13;;;;;;;1.80;1.70;;;17.10;62.60;;;;;;5061145;28;20474;-68
2022/12/11 08:33:43;;;;;;;1.90;1.80;;;17.10;62.60;;;;;;5067661;28;20493;-68
2022/12/11 08:36:13;;;;;;;1.60;1.50;;;17.10;62.60;;;;;;5067068;28;20451;-70
2022/12/11 08:38:42;;;;;;;2.00;1.90;;;17.10;62.60;;;;;;5044611;28;20494;-67
2022/12/11 08:41:13;;;;;;;2.40;2.20;;;17.10;62.60;;;;;;5060134;28;20555;-67
2022/12/11 08:43:42;;;;;;;2.13;2.03;;;17.10;62.60;;;;;;5054614;28;20457;-68
2022/12/11 08:46:12;;;;;;;1.60;1.50;;;17.10;62.60;;;;;;5050463;28;20486;-69
2022/12/11 08:48:42;;;;;;;2.23;2.03;;;17.10;62.60;;;;;;5048994;28;20525;-66
2022/12/11 08:51:13;;;;;;;2.00;1.90;;;17.10;62.60;;;;;;5037622;28;20470;-69
2022/12/11 08:53:42;;;;;;;1.93;1.77;;;17.10;62.60;;;;;;5052321;28;20483;-68
2022/12/11 08:56:13;;;;;;;1.93;1.83;;;17.20;62.60;;;;;;5048754;28;20991;-68
2022/12/11 08:58:42;;;;;;;2.50;1.97;;;17.20;62.50;;;;;;5045150;28;20463;-69
2022/12/11 09:01:11;;;;;;;1.80;1.70;;;17.20;62.60;;;;;;5053532;28;20953;-67
2022/12/11 09:03:42;;;;;;;1.90;1.80;;;17.10;62.60;;;;;;5055568;28;20573;-68
2022/12/11 09:06:12;;;;;;;1.73;1.63;;;17.20;62.60;;;;;;5056594;28;20859;-70
2022/12/11 09:08:41;;;;;;;2.00;1.90;;;17.20;62.60;;;;;;5049863;28;20458;-68
2022/12/11 09:11:19;;;;;;;1.90;1.80;;;17.20;62.70;;;;;;5054389;28;20549;-71
2022/12/11 09:13:47;;;;;;;2.10;1.80;;;17.20;62.70;;;;;;5051272;28;20495;-68
2022/12/11 09:16:18;;;;;;;3.20;1.93;;;17.20;62.70;;;;;;5059931;28;21113;-67
2022/12/11 09:18:47;;;;;;;2.50;2.30;;;17.20;62.70;;;;;;5061950;28;20482;-67
2022/12/11 09:21:18;;;;;;;3.63;2.43;;;17.20;62.70;;;;;;5055394;28;20543;-69
2022/12/11 09:23:46;;;;;;;2.40;2.20;;;17.20;62.80;;;;;;5050457;28;20458;-68
2022/12/11 09:26:18;;;;;;;2.03;1.93;;;17.20;62.70;;;;;;5052935;28;20541;-69
2022/12/11 09:28:50;;;;;;;4.30;1.90;;;17.20;62.80;;;;;;5046881;28;20463;-72
2022/12/11 09:31:22;;;;;;;2.20;2.03;;;17.20;62.80;;;;;;5049557;28;20501;-69
2022/12/11 09:33:51;;;;;;;2.33;2.10;;;17.20;62.80;;;;;;5049426;28;20468;-71
2022/12/11 09:36:19;;;;;;;3.87;2.50;;;17.30;63.10;;;;;;5052629;28;20459;-72
2022/12/11 09:38:47;;;;;;;3.40;3.13;;;17.30;63.00;;;;;;5050567;28;20471;-68
2022/12/11 09:41:32;;;;;;;3.37;2.80;;;17.40;62.90;;;;;;5056294;28;20584;-69
2022/12/11 09:44:08;;;;;;;4.23;2.83;;;17.50;62.90;;;;;;5050584;28;20891;-69
2022/12/11 09:46:37;;;;;;;2.70;2.40;;;17.60;62.70;;;;;;5055947;28;20494;-69
2022/12/11 09:49:16;;;;;;;2.83;2.63;;;17.70;62.60;;;;;;5056837;28;20487;-68
2022/12/11 09:51:49;;;;;;;3.43;2.70;;;17.80;62.40;;;;;;5057539;28;20551;-68
2022/12/11 09:54:17;;;;;;;4.10;2.60;;;17.90;62.30;;;;;;5062474;28;21273;-68
2022/12/11 09:56:56;;;;;;;4.83;2.43;;;18.00;62.00;;;;;;5058997;28;20543;-69
2022/12/11 09:59:31;;;;;;;3.73;2.93;;;18.00;61.90;;;;;;5055822;28;20538;-68
2022/12/11 10:02:11;;;;;;;3.03;2.73;;;18.10;61.70;;;;;;5056379;28;20550;-69
2022/12/11 10:04:50;;;;;;;3.27;2.67;;;18.10;61.70;;;;;;5057040;28;20863;-69
2022/12/11 10:07:25;;;;;;;2.70;2.50;;;18.20;61.50;;;;;;5055873;28;20542;-68
2022/12/11 10:09:59;;;;;;;5.77;2.90;;;18.20;61.50;;;;;;5059893;28;20994;-69
2022/12/11 10:12:40;;;;;;;2.93;2.70;;;18.20;61.40;;;;;;5058658;28;20477;-69
2022/12/11 10:15:31;;;;;;;4.60;3.33;;;18.20;61.30;;;;;;5058387;28;20450;-68
2022/12/11 10:18:01;;;;;;;5.53;4.87;;;18.30;61.20;;;;;;5058827;28;20469;-69
2022/12/11 10:20:37;;;;;;;10.00;8.00;;;18.30;61.10;;;;;;5056776;28;20465;-69
2022/12/11 10:23:07;;;;;;;9.90;9.00;;;18.30;61.10;;;;;;5055670;28;20614;-69
2022/12/11 10:25:39;;;;;;;12.27;10.47;;;18.40;60.90;;;;;;5059404;28;20489;-68
2022/12/11 10:28:14;;;;;;;14.93;11.37;;;18.50;60.80;;;;;;5058010;28;20585;-68
2022/12/11 10:30:48;;;;;;;18.67;11.00;;;18.60;60.60;;;;;;5062655;28;20528;-68
2022/12/11 10:33:21;;;;;;;11.43;10.30;;;18.70;60.30;;;;;;5058079;28;20474;-67
2022/12/11 10:35:54;;;;;;;11.00;9.73;;;18.80;60.00;;;;;;5055567;28;20540;-67
2022/12/11 10:38:27;;;;;;;10.27;9.27;;;18.90;59.80;;;;;;5060333;28;20537;-68
2022/12/11 10:40:58;;;;;;;10.17;9.27;;;19.00;59.70;;;;;;5060237;28;20601;-68
2022/12/11 10:43:36;;;;;;;9.83;9.03;;;19.00;59.70;;;;;;5052228;28;20549;-70
2022/12/11 10:46:06;;;;;;;9.63;8.47;;;19.00;59.70;;;;;;5072843;28;20456;-68
2022/12/11 10:48:34;;;;;;;9.40;8.60;;;19.00;59.60;;;;;;5057797;28;20481;-68
2022/12/11 10:51:05;;;;;;;10.33;9.33;;;19.00;59.60;;;;;;5056446;28;20451;-68
2022/12/11 10:53:34;;;;;;;10.30;8.37;;;19.00;59.60;;;;;;5062691;28;20888;-68
2022/12/11 10:56:02;;;;;;;9.80;9.00;;;19.00;59.60;;;;;;5060304;28;20796;-67
2022/12/11 10:58:33;;;;;;;9.73;8.17;;;19.00;59.60;;;;;;5065338;28;20447;-66
2022/12/11 11:01:14;;;;;;;12.03;7.70;;;19.00;59.70;;;;;;5071594;28;20450;-66
2022/12/11 11:03:54;;;;;;;9.77;7.63;;;19.00;59.60;;;;;;5069430;28;20926;-67
2022/12/11 11:06:24;;;;;;;9.50;8.17;;;19.00;59.60;;;;;;5064220;28;20438;-66
2022/12/11 11:08:53;;;;;;;8.47;7.77;;;19.00;59.50;;;;;;5061949;28;20493;-66
2022/12/11 11:11:27;;;;;;;11.80;7.40;;;19.00;59.40;;;;;;5060178;28;20449;-67
2022/12/11 11:14:14;;;;;;;7.20;6.50;;;19.00;59.40;;;;;;5064146;28;20561;-66
2022/12/11 11:16:46;;;;;;;8.83;7.30;;;19.00;59.30;;;;;;5061295;28;20439;-67
2022/12/11 11:19:20;;;;;;;8.10;7.40;;;19.00;59.20;;;;;;5054823;28;20491;-66
2022/12/11 11:21:51;;;;;;;10.03;7.20;;;19.00;59.20;;;;;;5068095;28;20558;-67
2022/12/11 11:24:27;;;;;;;9.90;7.63;;;19.10;59.20;;;;;;5062004;28;20542;-66
2022/12/11 11:26:56;;;;;;;6.80;5.80;;;19.10;59.20;;;;;;5058905;28;20520;-67
2022/12/11 11:29:41;;;;;;;7.50;6.73;;;19.10;59.20;;;;;;5060023;28;20456;-67
2022/12/11 11:32:20;;;;;;;6.23;5.73;;;19.20;59.20;;;;;;5056016;28;20461;-66
2022/12/11 11:34:48;;;;;;;13.00;6.77;;;19.20;59.00;;;;;;5060441;28;20491;-68
2022/12/11 11:37:25;;;;;;;7.20;6.60;;;19.20;59.00;;;;;;5055277;28;20447;-71
2022/12/11 11:39:57;;;;;;;7.50;6.90;;;19.20;58.90;;;;;;5062688;28;20545;-66
2022/12/11 11:42:37;;;;;;;6.73;6.10;;;19.20;58.80;;;;;;5062325;28;20544;-67
2022/12/11 11:45:12;;;;;;;6.23;5.73;;;19.20;58.80;;;;;;5059302;28;20480;-66
2022/12/11 11:47:50;;;;;;;6.57;5.90;;;19.20;58.70;;;;;;5068157;28;20488;-67
2022/12/11 11:50:24;;;;;;;8.10;5.80;;;19.20;58.70;;;;;;5059496;28;20550;-68
2022/12/11 11:52:59;;;;;;;6.03;5.53;;;19.20;58.60;;;;;;5062591;28;20578;-66
2022/12/11 11:55:38;;;;;;;6.60;6.00;;;19.20;58.60;;;;;;5061281;28;20539;-70
2022/12/11 11:58:13;;;;;;;6.50;5.90;;;19.20;58.60;;;;;;5055803;28;20483;-66
2022/12/11 12:00:42;;;;;;;5.87;5.03;;;19.30;58.50;;;;;;5059557;28;20962;-66
2022/12/11 12:03:15;;;;;;;5.47;4.97;;;19.30;58.50;;;;;;5055709;28;20732;-68
2022/12/11 12:05:55;;;;;;;5.90;5.50;;;19.30;58.40;;;;;;5057598;28;20519;-67
2022/12/11 12:08:38;;;;;;;5.73;5.23;;;19.30;58.20;;;;;;5053123;28;20461;-67
2022/12/11 12:11:15;;;;;;;6.47;6.00;;;19.40;58.10;;;;;;5057831;28;20446;-68
2022/12/11 12:13:54;;;;;;;5.43;4.93;;;19.40;58.10;;;;;;5065203;28;20516;-67
2022/12/11 12:16:38;;;;;;;5.80;5.20;;;19.40;58.00;;;;;;5062754;28;20463;-66
2022/12/11 12:19:47;;;;;;;6.27;5.77;;;19.40;58.00;;;;;;5064834;28;20509;-67
2022/12/11 12:22:28;;;;;;;6.00;4.60;;;19.30;58.10;;;;;;5058532;28;20454;-68
2022/12/11 12:25:10;;;;;;;5.47;5.07;;;19.30;58.20;;;;;;5050141;28;20457;-67
2022/12/11 12:27:46;;;;;;;5.23;4.80;;;19.30;58.20;;;;;;5055885;28;20465;-67
2022/12/11 12:30:21;;;;;;;9.33;5.00;;;19.30;58.30;;;;;;5057180;28;20972;-68
2022/12/11 12:33:04;;;;;;;5.30;4.80;;;19.30;58.30;;;;;;5062689;28;20462;-67
2022/12/11 12:35:37;;;;;;;5.73;5.10;;;19.20;58.40;;;;;;5063299;28;20493;-67
2022/12/11 12:38:14;;;;;;;4.67;4.33;;;19.20;58.40;;;;;;5053912;28;20498;-66
2022/12/11 12:40:54;;;;;;;5.27;4.80;;;19.20;58.50;;;;;;5055888;28;20491;-67
2022/12/11 12:44:00;;;;;;;4.80;4.40;;;19.20;58.60;;;;;;5057983;28;20462;-66
2022/12/11 12:46:37;;;;;;;5.97;4.00;;;19.10;58.70;;;;;;5028087;28;20480;-67
2022/12/11 12:49:12;;;;;;;5.97;4.70;;;19.10;58.70;;;;;;5053505;28;20549;-67
2022/12/11 12:51:43;;;;;;;6.50;4.60;;;19.10;58.80;;;;;;5056635;28;20557;-66
2022/12/11 12:54:17;;;;;;;4.60;4.30;;;19.00;58.80;;;;;;5057024;28;20502;-68
2022/12/11 12:56:47;;;;;;;4.23;3.93;;;19.00;58.80;;;;;;5057557;28;20810;-68
2022/12/11 12:59:24;;;;;;;4.20;3.90;;;19.00;58.80;;;;;;5058092;28;20478;-67
2022/12/11 13:01:56;;;;;;;5.10;4.30;;;19.00;58.90;;;;;;5060354;28;20877;-67
2022/12/11 13:04:39;;;;;;;4.50;4.20;;;18.90;58.90;;;;;;5059392;28;20546;-68
2022/12/11 13:07:28;;;;;;;5.17;4.67;;;18.90;59.00;;;;;;5060292;28;20516;-67
2022/12/11 13:10:03;;;;;;;4.93;4.63;;;18.90;59.10;;;;;;5060343;28;20447;-67
2022/12/11 13:12:40;;;;;;;5.30;4.90;;;18.90;59.10;;;;;;5052877;28;20450;-69
2022/12/11 13:15:42;;;;;;;6.13;5.03;;;18.90;59.20;;;;;;5047289;28;20608;-67
2022/12/11 13:18:34;;;;;;;5.50;5.00;;;18.90;59.40;;;;;;5052941;28;20453;-71